createdAt,value
2023-03-06T00:02:37.669Z,99860.34
2023-03-06T00:05:40.602Z,99860.38
2023-03-06T00:08:43.161Z,99858.56
2023-03-06T00:11:46.091Z,99860.12
2023-03-06T00:14:48.932Z,99862.09
2023-03-06T00:17:52.287Z,99856.84
2023-03-06T00:20:54.922Z,99855.25
2023-03-06T00:23:57.710Z,99858.63
2023-03-06T00:27:00.196Z,99855.19
2023-03-06T00:30:04.098Z,99850.00
2023-03-06T00:33:06.938Z,99838.19
2023-03-06T00:36:10.313Z,99832.16
2023-03-06T00:39:13.048Z,99835.72
2023-03-06T00:42:17.473Z,99833.97
2023-03-06T00:45:20.139Z,99833.00
2023-03-06T00:48:22.990Z,99826.91
2023-03-06T00:51:27.490Z,99836.44
2023-03-06T00:54:30.299Z,99831.28
2023-03-06T00:57:33.094Z,99831.00
2023-03-06T01:00:36.088Z,99827.72
2023-03-06T01:03:38.805Z,99821.78
2023-03-06T01:06:41.850Z,99819.13
2023-03-06T01:09:44.489Z,99817.25
2023-03-06T01:12:47.454Z,99818.22
2023-03-06T01:15:50.023Z,99810.53
2023-03-06T01:18:53.206Z,99802.87
2023-03-06T01:21:56.310Z,99814.19
2023-03-06T01:24:59.188Z,99807.81
2023-03-06T01:28:01.818Z,99795.91
2023-03-06T01:31:05.891Z,99808.00
2023-03-06T01:34:08.516Z,99798.78
2023-03-06T01:37:11.452Z,99798.59
2023-03-06T01:40:14.394Z,99803.66
2023-03-06T01:43:26.666Z,99800.25
2023-03-06T01:46:29.163Z,99785.78
2023-03-06T01:49:36.744Z,99779.00
2023-03-06T01:52:49.589Z,99784.12
2023-03-06T01:55:52.695Z,99784.97
2023-03-06T01:58:55.467Z,99789.06
2023-03-06T02:02:01.822Z,99793.16
2023-03-06T02:05:08.081Z,99791.28
2023-03-06T02:08:13.551Z,99794.91
2023-03-06T02:11:26.236Z,99786.41
2023-03-06T02:14:29.736Z,99789.44
2023-03-06T02:17:34.897Z,99786.06
2023-03-06T02:20:44.691Z,99797.38
2023-03-06T02:24:28.814Z,99794.09
2023-03-06T02:27:32.185Z,99782.16
2023-03-06T02:30:36.306Z,99773.59
2023-03-06T02:33:39.077Z,99781.28
2023-03-06T02:37:09.519Z,99782.91
2023-03-06T02:40:15.162Z,99774.94
2023-03-06T02:43:24.536Z,99765.63
2023-03-06T02:46:27.247Z,99769.91
2023-03-06T02:49:30.053Z,99781.94
2023-03-06T02:52:34.156Z,99788.53
2023-03-06T02:55:38.636Z,99787.69
2023-03-06T02:58:41.219Z,99784.56
2023-03-06T03:01:44.128Z,99779.16
2023-03-06T03:04:46.781Z,99784.34
2023-03-06T03:07:50.025Z,99783.56
2023-03-06T03:10:52.750Z,99782.66
2023-03-06T03:13:55.820Z,99786.28
2023-03-06T03:16:58.915Z,99783.62
2023-03-06T03:20:04.504Z,99783.44
2023-03-06T03:23:07.250Z,99780.22
2023-03-06T03:26:15.699Z,99778.53
2023-03-06T03:29:19.129Z,99776.00
2023-03-06T03:32:23.385Z,99768.84
2023-03-06T03:35:26.217Z,99764.69
2023-03-06T03:38:30.102Z,99764.94
2023-03-06T03:41:33.941Z,99765.00
2023-03-06T03:44:38.453Z,99760.78
2023-03-06T03:47:41.578Z,99768.16
2023-03-06T03:50:45.503Z,99757.22
2023-03-06T03:53:49.343Z,99755.53
2023-03-06T03:56:52.699Z,99757.25
2023-03-06T03:59:55.735Z,99768.41
2023-03-06T04:02:58.751Z,99762.41
2023-03-06T04:06:02.330Z,99765.00
2023-03-06T04:09:05.833Z,99763.25
2023-03-06T04:12:09.450Z,99762.38
2023-03-06T04:15:12.451Z,99764.19
2023-03-06T04:18:16.610Z,99754.75
2023-03-06T04:21:19.946Z,99764.69
2023-03-06T04:24:22.998Z,99771.38
2023-03-06T04:27:25.672Z,99766.53
2023-03-06T04:30:28.604Z,99767.47
2023-03-06T04:33:31.407Z,99764.78
2023-03-06T04:36:35.491Z,99762.06
2023-03-06T04:39:39.081Z,99763.09
2023-03-06T04:42:42.102Z,99765.81
2023-03-06T04:45:44.802Z,99764.97
2023-03-06T04:48:47.892Z,99759.66
2023-03-06T04:51:50.477Z,99765.09
2023-03-06T04:54:53.269Z,99760.09
2023-03-06T04:57:56.868Z,99753.38
2023-03-06T05:00:59.773Z,99750.72
2023-03-06T05:04:02.449Z,99749.97
2023-03-06T05:07:05.393Z,99751.59
2023-03-06T05:10:12.049Z,99758.50
2023-03-06T05:13:14.904Z,99753.28
2023-03-06T05:16:17.657Z,99756.84
2023-03-06T05:19:20.736Z,99758.53
2023-03-06T05:22:23.397Z,99756.84
2023-03-06T05:25:26.269Z,99755.13
2023-03-06T05:28:28.947Z,99760.34
2023-03-06T05:31:31.834Z,99757.75
2023-03-06T05:34:34.749Z,99762.91
2023-03-06T05:37:37.730Z,99762.66
2023-03-06T05:40:41.803Z,99761.06
2023-03-06T05:43:44.703Z,99762.94
2023-03-06T05:46:50.006Z,99761.38
2023-03-06T05:49:52.983Z,99763.16
2023-03-06T05:52:55.550Z,99775.31
2023-03-06T05:56:00.468Z,99771.13
2023-03-06T05:59:03.102Z,99763.44
2023-03-06T06:02:05.984Z,99766.69
2023-03-06T06:05:11.328Z,99767.88
2023-03-06T06:08:15.595Z,99767.16
2023-03-06T06:11:18.553Z,99768.00
2023-03-06T06:14:22.396Z,99771.31
2023-03-06T06:17:25.279Z,99773.19
2023-03-06T06:20:28.552Z,99778.28
2023-03-06T06:23:31.588Z,99781.78
2023-03-06T06:26:34.141Z,99779.16
2023-03-06T06:29:37.156Z,99789.34
2023-03-06T06:32:39.798Z,99789.41
2023-03-06T06:35:42.647Z,99787.87
2023-03-06T06:38:45.419Z,99785.25
2023-03-06T06:42:03.001Z,99797.47
2023-03-06T06:45:12.930Z,99788.78
2023-03-06T06:48:17.546Z,99786.31
2023-03-06T06:51:22.553Z,99787.06
2023-03-06T06:54:25.866Z,99787.81
2023-03-06T06:57:28.538Z,99783.31
2023-03-06T07:00:31.631Z,99784.88
2023-03-06T07:03:34.826Z,99782.28
2023-03-06T07:06:38.269Z,99775.34
2023-03-06T07:09:40.951Z,99779.87
2023-03-06T07:12:44.366Z,99787.56
2023-03-06T07:15:47.098Z,99792.66
2023-03-06T07:18:50.286Z,99794.09
2023-03-06T07:21:52.969Z,99793.88
2023-03-06T07:24:55.824Z,99804.16
2023-03-06T07:27:59.608Z,99804.84
2023-03-06T07:31:11.629Z,99813.53
2023-03-06T07:34:15.441Z,99806.66
2023-03-06T07:37:18.370Z,99804.06
2023-03-06T07:40:21.795Z,99803.03
2023-03-06T07:43:24.677Z,99801.41
2023-03-06T07:46:28.866Z,99802.94
2023-03-06T07:49:32.062Z,99806.22
2023-03-06T07:52:34.780Z,99807.78
2023-03-06T07:55:41.438Z,99806.94
2023-03-06T07:58:46.098Z,99812.13
2023-03-06T08:01:48.977Z,99820.50
2023-03-06T08:04:53.750Z,99822.22
2023-03-06T08:07:56.362Z,99814.09
2023-03-06T08:10:59.198Z,99821.75
2023-03-06T08:14:01.819Z,99818.84
2023-03-06T08:17:04.893Z,99817.78
2023-03-06T08:20:08.267Z,99815.53
2023-03-06T08:23:11.965Z,99812.84
2023-03-06T08:26:26.628Z,99815.34
2023-03-06T08:29:31.485Z,99812.06
2023-03-06T08:32:36.877Z,99813.34
2023-03-06T08:35:39.825Z,99811.88
2023-03-06T08:38:42.504Z,99821.53
2023-03-06T08:41:45.469Z,99819.13
2023-03-06T08:44:48.060Z,99818.78
2023-03-06T08:47:50.938Z,99818.47
2023-03-06T08:50:56.086Z,99821.19
2023-03-06T08:53:59.423Z,99814.56
2023-03-06T08:57:02.514Z,99820.84
2023-03-06T09:00:10.879Z,99816.88
2023-03-06T09:03:13.501Z,99819.31
2023-03-06T09:06:17.960Z,99813.13
2023-03-06T09:09:20.642Z,99807.47
2023-03-06T09:12:24.009Z,99803.13
2023-03-06T09:15:26.766Z,99794.41
2023-03-06T09:18:29.993Z,99793.84
2023-03-06T09:21:32.678Z,99794.87
2023-03-06T09:24:35.535Z,99802.31
2023-03-06T09:27:38.123Z,99794.50
2023-03-06T09:30:42.002Z,99792.44
2023-03-06T09:33:45.011Z,99773.16
2023-03-06T09:36:56.891Z,99766.53
2023-03-06T09:40:00.172Z,99770.91
2023-03-06T09:43:03.118Z,99773.72
2023-03-06T09:46:42.531Z,99768.41
2023-03-06T09:50:13.406Z,99773.53
2023-03-06T09:53:36.666Z,99767.25
2023-03-06T09:56:50.650Z,99759.91
2023-03-06T10:00:01.434Z,99760.25
2023-03-06T10:03:38.169Z,99765.56
2023-03-06T10:06:50.391Z,99761.16
2023-03-06T10:10:13.160Z,99767.28
2023-03-06T10:13:46.388Z,99766.56
2023-03-06T10:16:49.383Z,99762.94
2023-03-06T10:19:53.942Z,99761.19
2023-03-06T10:23:01.340Z,99758.13
2023-03-06T10:26:30.209Z,99760.84
2023-03-06T10:30:02.067Z,99759.75
2023-03-06T10:33:13.386Z,99767.22
2023-03-06T10:36:17.001Z,99756.28
2023-03-06T10:39:22.248Z,99749.97
2023-03-06T10:42:25.051Z,99748.31
2023-03-06T10:45:35.202Z,99738.69
2023-03-06T10:48:49.150Z,99733.87
2023-03-06T10:52:01.168Z,99723.06
2023-03-06T10:55:25.721Z,99722.38
2023-03-06T10:58:32.915Z,99711.16
2023-03-06T11:01:35.996Z,99707.81
2023-03-06T11:04:41.707Z,99694.47
2023-03-06T11:08:01.703Z,99691.66
2023-03-06T11:11:14.493Z,99685.75
2023-03-06T11:14:22.899Z,99684.03
2023-03-06T11:17:32.077Z,99677.38
2023-03-06T11:20:51.092Z,99660.19
2023-03-06T11:23:58.482Z,99666.69
2023-03-06T11:27:14.922Z,99655.94
2023-03-06T11:30:22.412Z,99647.16
2023-03-06T11:33:40.663Z,99646.72
2023-03-06T11:36:54.791Z,99633.41
2023-03-06T11:40:23.712Z,99624.09
2023-03-06T11:43:51.985Z,99613.66
2023-03-06T11:47:16.640Z,99608.81
2023-03-06T11:50:28.517Z,99594.94
2023-03-06T11:53:38.027Z,99592.09
2023-03-06T11:57:01.864Z,99595.56
2023-03-06T12:00:29.455Z,99583.97
2023-03-06T12:03:35.654Z,99579.56
2023-03-06T12:07:03.282Z,99569.53
2023-03-06T12:10:18.968Z,99563.69
2023-03-06T12:13:37.606Z,99556.47
2023-03-06T12:16:46.588Z,99553.53
2023-03-06T12:20:20.314Z,99549.91
2023-03-06T12:23:47.489Z,99552.22
2023-03-06T12:26:56.836Z,99548.88
2023-03-06T12:30:19.338Z,99540.25
2023-03-06T12:33:25.023Z,99550.84
2023-03-06T12:37:05.195Z,99544.00
2023-03-06T12:40:30.624Z,99546.56
2023-03-06T12:43:45.510Z,99545.66
2023-03-06T12:46:54.720Z,99542.38
2023-03-06T12:50:26.731Z,99547.03
2023-03-06T12:53:32.052Z,99543.31
2023-03-06T12:56:35.581Z,99532.84
2023-03-06T12:59:50.063Z,99532.84
2023-03-06T13:03:19.003Z,99537.50
2023-03-06T13:06:39.151Z,99527.59
2023-03-06T13:10:06.662Z,99530.19
2023-03-06T13:13:32.597Z,99521.53
2023-03-06T13:16:41.900Z,99530.06
2023-03-06T13:19:45.014Z,99520.91
2023-03-06T13:22:48.239Z,99520.00
2023-03-06T13:25:50.905Z,99513.75
2023-03-06T13:28:57.793Z,99502.12
2023-03-06T13:32:00.556Z,99509.00
2023-03-06T13:35:32.327Z,99505.25
2023-03-06T13:38:39.649Z,99502.06
2023-03-06T13:41:58.257Z,99497.03
2023-03-06T13:45:23.759Z,99483.19
2023-03-06T13:48:47.653Z,99491.31
2023-03-06T13:51:53.377Z,99491.13
2023-03-06T13:55:24.788Z,99486.84
2023-03-06T13:58:36.273Z,99481.94
2023-03-06T14:01:42.592Z,99472.19
2023-03-06T14:04:59.941Z,99467.81
2023-03-06T14:08:13.925Z,99472.31
2023-03-06T14:11:21.736Z,99474.91
2023-03-06T14:14:34.699Z,99474.28
2023-03-06T14:17:39.230Z,99463.47
2023-03-06T14:20:44.839Z,99462.03
2023-03-06T14:24:00.384Z,99467.78
2023-03-06T14:27:03.667Z,99465.97
2023-03-06T14:30:11.585Z,99470.84
2023-03-06T14:33:32.271Z,99464.69
2023-03-06T14:36:47.895Z,99464.97
2023-03-06T14:39:51.380Z,99463.47
2023-03-06T14:43:20.123Z,99453.06
2023-03-06T14:46:23.312Z,99456.22
2023-03-06T14:49:26.999Z,99449.09
2023-03-06T14:52:29.912Z,99445.41
2023-03-06T14:55:35.611Z,99448.88
2023-03-06T14:58:59.448Z,99439.94
2023-03-06T15:02:11.091Z,99442.19
2023-03-06T15:05:26.137Z,99439.00
2023-03-06T15:08:36.400Z,99446.53
2023-03-06T15:11:57.861Z,99439.72
2023-03-06T15:15:03.729Z,99445.16
2023-03-06T15:18:28.767Z,99439.56
2023-03-06T15:21:37.114Z,99435.41
2023-03-06T15:24:39.734Z,99436.13
2023-03-06T15:27:52.057Z,99429.03
2023-03-06T15:31:21.231Z,99429.53
2023-03-06T15:34:24.074Z,99426.06
2023-03-06T15:37:28.756Z,99420.94
2023-03-06T15:40:31.986Z,99421.87
2023-03-06T15:43:39.558Z,99418.62
2023-03-06T15:46:42.396Z,99421.87
2023-03-06T15:49:45.235Z,99419.75
2023-03-06T15:52:49.051Z,99421.81
2023-03-06T15:55:52.069Z,99428.63
2023-03-06T15:58:56.338Z,99432.50
2023-03-06T16:02:15.238Z,99436.72
2023-03-06T16:05:18.495Z,99443.59
2023-03-06T16:08:21.029Z,99439.53
2023-03-06T16:11:32.510Z,99442.31
2023-03-06T16:14:38.524Z,99438.59
2023-03-06T16:17:41.387Z,99443.28
2023-03-06T16:20:44.273Z,99439.63
2023-03-06T16:23:47.176Z,99445.91
2023-03-06T16:26:51.582Z,99446.09
2023-03-06T16:29:54.403Z,99447.19
2023-03-06T16:32:57.933Z,99446.41
2023-03-06T16:36:00.825Z,99449.66
2023-03-06T16:39:04.539Z,99445.56
2023-03-06T16:42:07.544Z,99451.53
2023-03-06T16:45:10.785Z,99454.22
2023-03-06T16:48:16.256Z,99449.94
2023-03-06T16:51:21.552Z,99457.50
2023-03-06T16:54:26.182Z,99450.63
2023-03-06T16:57:35.529Z,99452.44
2023-03-06T17:00:38.769Z,99458.41
2023-03-06T17:03:41.827Z,99460.03
2023-03-06T17:06:44.649Z,99457.50
2023-03-06T17:09:47.139Z,99458.53
2023-03-06T17:12:50.172Z,99452.56
2023-03-06T17:15:56.875Z,99469.81
2023-03-06T17:19:00.960Z,99463.28
2023-03-06T17:22:03.715Z,99457.19
2023-03-06T17:25:07.903Z,99453.88
2023-03-06T17:28:10.900Z,99454.69
2023-03-06T17:31:26.692Z,99448.66
2023-03-06T17:34:29.985Z,99456.59
2023-03-06T17:37:32.949Z,99448.06
2023-03-06T17:40:35.740Z,99440.25
2023-03-06T17:43:39.446Z,99448.06
2023-03-06T17:46:43.147Z,99438.72
2023-03-06T17:49:46.347Z,99443.00
2023-03-06T17:52:49.060Z,99433.81
2023-03-06T17:55:51.929Z,99441.59
2023-03-06T17:58:55.411Z,99446.66
2023-03-06T18:01:59.253Z,99441.78
2023-03-06T18:05:02.560Z,99442.69
2023-03-06T18:08:05.965Z,99452.87
2023-03-06T18:11:10.961Z,99452.19
2023-03-06T18:14:14.200Z,99446.13
2023-03-06T18:17:17.044Z,99457.16
2023-03-06T18:20:19.894Z,99450.34
2023-03-06T18:23:23.486Z,99449.41
2023-03-06T18:26:30.122Z,99453.53
2023-03-06T18:29:33.007Z,99448.25
2023-03-06T18:32:35.755Z,99442.28
2023-03-06T18:35:38.680Z,99448.31
2023-03-06T18:38:43.967Z,99461.94
2023-03-06T18:41:47.366Z,99463.50
2023-03-06T18:44:49.926Z,99454.06
2023-03-06T18:47:52.735Z,99445.75
2023-03-06T18:50:55.402Z,99444.06
2023-03-06T18:53:59.994Z,99438.06
2023-03-06T18:57:02.569Z,99450.31
2023-03-06T19:00:07.399Z,99436.31
2023-03-06T19:03:11.118Z,99425.44
2023-03-06T19:06:16.966Z,99429.53
2023-03-06T19:09:19.769Z,99434.19
2023-03-06T19:12:23.467Z,99435.19
2023-03-06T19:15:26.073Z,99427.66
2023-03-06T19:18:29.693Z,99438.13
2023-03-06T19:21:32.328Z,99436.69
2023-03-06T19:24:35.310Z,99436.78
2023-03-06T19:27:39.206Z,99448.72
2023-03-06T19:30:42.048Z,99439.34
2023-03-06T19:33:45.189Z,99443.69
2023-03-06T19:36:50.636Z,99443.78
2023-03-06T19:39:53.245Z,99435.38
2023-03-06T19:42:56.287Z,99427.59
2023-03-06T19:46:00.650Z,99429.16
2023-03-06T19:49:11.625Z,99432.66
2023-03-06T19:52:14.491Z,99436.00
2023-03-06T19:55:17.402Z,99437.69
2023-03-06T19:58:19.945Z,99423.28
2023-03-06T20:01:25.656Z,99420.97
2023-03-06T20:04:33.120Z,99424.47
2023-03-06T20:07:35.790Z,99424.44
2023-03-06T20:10:38.635Z,99411.72
2023-03-06T20:13:47.207Z,99418.53
2023-03-06T20:16:50.648Z,99424.38
2023-03-06T20:19:53.461Z,99413.28
2023-03-06T20:22:56.397Z,99410.88
2023-03-06T20:26:09.404Z,99414.37
2023-03-06T20:29:12.626Z,99413.47
2023-03-06T20:32:15.295Z,99420.25
2023-03-06T20:35:18.170Z,99427.81
2023-03-06T20:38:21.160Z,99430.34
2023-03-06T20:41:26.995Z,99434.53
2023-03-06T20:44:30.023Z,99433.66
2023-03-06T20:47:32.834Z,99437.22
2023-03-06T20:50:35.640Z,99447.59
2023-03-06T20:53:38.501Z,99440.59
2023-03-06T20:56:42.929Z,99432.91
2023-03-06T20:59:46.025Z,99437.91
2023-03-06T21:02:48.674Z,99436.16
2023-03-06T21:05:51.473Z,99432.75
2023-03-06T21:08:54.988Z,99434.31
2023-03-06T21:11:58.080Z,99428.38
2023-03-06T21:15:00.666Z,99424.03
2023-03-06T21:18:03.546Z,99424.06
2023-03-06T21:21:24.155Z,99425.91
2023-03-06T21:24:27.001Z,99427.66
2023-03-06T21:27:29.662Z,99436.00
2023-03-06T21:30:34.357Z,99433.88
2023-03-06T21:33:37.951Z,99436.50
2023-03-06T21:36:40.919Z,99441.53
2023-03-06T21:39:43.980Z,99437.25
2023-03-06T21:42:46.936Z,99446.41
2023-03-06T21:45:52.656Z,99440.59
2023-03-06T21:48:56.439Z,99436.50
2023-03-06T21:51:58.966Z,99438.09
2023-03-06T21:55:01.838Z,99432.22
2023-03-06T21:58:04.416Z,99439.00
2023-03-06T22:01:16.933Z,99431.56
2023-03-06T22:04:19.918Z,99430.88
2023-03-06T22:07:22.995Z,99432.62
2023-03-06T22:10:25.911Z,99433.47
2023-03-06T22:13:28.747Z,99438.66
2023-03-06T22:16:32.194Z,99427.69
2023-03-06T22:19:34.896Z,99432.97
2023-03-06T22:22:37.673Z,99425.56
2023-03-06T22:25:40.553Z,99429.13
2023-03-06T22:28:43.543Z,99426.66
2023-03-06T22:31:46.440Z,99429.13
2023-03-06T22:34:50.067Z,99431.75
2023-03-06T22:37:52.559Z,99418.25
2023-03-06T22:40:58.640Z,99423.38
2023-03-06T22:44:03.022Z,99428.50
2023-03-06T22:47:06.400Z,99428.59
2023-03-06T22:50:09.789Z,99422.63
2023-03-06T22:53:12.765Z,99425.22
2023-03-06T22:56:20.995Z,99427.53
2023-03-06T22:59:23.892Z,99417.69
2023-03-06T23:02:32.422Z,99414.44
2023-03-06T23:05:40.549Z,99424.69
2023-03-06T23:08:44.304Z,99436.50
2023-03-06T23:11:48.018Z,99432.03
2023-03-06T23:15:09.404Z,99435.56
2023-03-06T23:18:30.836Z,99431.31
2023-03-06T23:21:51.881Z,99435.88
2023-03-06T23:25:12.844Z,99437.31
2023-03-06T23:28:15.722Z,99433.19
2023-03-06T23:31:22.548Z,99435.88
2023-03-06T23:34:25.576Z,99428.25
2023-03-06T23:37:28.172Z,99428.25
2023-03-06T23:40:31.422Z,99429.22
2023-03-06T23:43:34.491Z,99439.63
2023-03-06T23:46:37.463Z,99428.06
2023-03-06T23:49:40.102Z,99428.22
2023-03-06T23:52:43.480Z,99433.41
2023-03-06T23:55:48.422Z,99430.97
2023-03-06T23:58:51.292Z,99442.19
